sensor_id;sensor_type;location;lat;lon;timestamp;temperature;humidity
39695;DHT22;25367;-35.352;149.036;2023-03-14T00:01:53;26.00;50.10
39695;DHT22;25367;-35.352;149.036;2023-03-14T00:04:23;26.00;50.00
39695;DHT22;25367;-35.352;149.036;2023-03-14T00:06:53;26.10;50.00
39695;DHT22;25367;-35.352;149.036;2023-03-14T00:09:25;26.10;49.80
39695;DHT22;25367;-35.352;149.036;2023-03-14T00:11:55;26.10;49.60
39695;DHT22;25367;-35.352;149.036;2023-03-14T00:14:26;26.10;49.70
39695;DHT22;25367;-35.352;149.036;2023-03-14T00:16:55;26.10;49.60
39695;DHT22;25367;-35.352;149.036;2023-03-14T00:19:25;26.10;49.50
39695;DHT22;25367;-35.352;149.036;2023-03-14T00:21:55;26.10;49.60
39695;DHT22;25367;-35.352;149.036;2023-03-14T00:24:27;26.10;49.50
39695;DHT22;25367;-35.352;149.036;2023-03-14T00:26:56;26.10;49.60
39695;DHT22;25367;-35.352;149.036;2023-03-14T00:29:26;26.10;49.70
39695;DHT22;25367;-35.352;149.036;2023-03-14T00:31:55;26.20;49.80
39695;DHT22;25367;-35.352;149.036;2023-03-14T00:34:29;26.20;49.80
39695;DHT22;25367;-35.352;149.036;2023-03-14T00:36:59;26.20;49.80
39695;DHT22;25367;-35.352;149.036;2023-03-14T00:39:30;26.20;50.00
39695;DHT22;25367;-35.352;149.036;2023-03-14T00:41:59;26.30;50.00
39695;DHT22;25367;-35.352;149.036;2023-03-14T00:44:30;26.30;50.00
39695;DHT22;25367;-35.352;149.036;2023-03-14T00:47:00;26.30;49.90
39695;DHT22;25367;-35.352;149.036;2023-03-14T00:49:30;26.30;49.80
39695;DHT22;25367;-35.352;149.036;2023-03-14T00:52:00;26.30;49.80
39695;DHT22;25367;-35.352;149.036;2023-03-14T00:54:32;26.30;49.80
39695;DHT22;25367;-35.352;149.036;2023-03-14T00:57:02;26.40;49.80
39695;DHT22;25367;-35.352;149.036;2023-03-14T00:59:32;26.30;49.80
39695;DHT22;25367;-35.352;149.036;2023-03-14T01:04:36;26.30;49.80
39695;DHT22;25367;-35.352;149.036;2023-03-14T01:07:07;26.40;49.90
39695;DHT22;25367;-35.352;149.036;2023-03-14T01:09:40;26.40;49.90
39695;DHT22;25367;-35.352;149.036;2023-03-14T01:12:11;26.50;50.00
39695;DHT22;25367;-35.352;149.036;2023-03-14T01:14:41;26.50;50.10
39695;DHT22;25367;-35.352;149.036;2023-03-14T01:17:11;26.50;50.10
39695;DHT22;25367;-35.352;149.036;2023-03-14T01:19:42;26.50;50.10
39695;DHT22;25367;-35.352;149.036;2023-03-14T01:22:12;26.50;50.10
39695;DHT22;25367;-35.352;149.036;2023-03-14T01:24:45;26.50;50.00
39695;DHT22;25367;-35.352;149.036;2023-03-14T01:27:15;26.50;50.00
39695;DHT22;25367;-35.352;149.036;2023-03-14T01:29:45;26.50;50.00
39695;DHT22;25367;-35.352;149.036;2023-03-14T01:32:15;26.60;50.00
39695;DHT22;25367;-35.352;149.036;2023-03-14T01:34:45;26.60;50.10
39695;DHT22;25367;-35.352;149.036;2023-03-14T01:37:15;26.60;50.00
39695;DHT22;25367;-35.352;149.036;2023-03-14T01:39:48;26.60;50.00
39695;DHT22;25367;-35.352;149.036;2023-03-14T01:42:18;26.70;50.00
39695;DHT22;25367;-35.352;149.036;2023-03-14T01:44:50;26.70;50.00
39695;DHT22;25367;-35.352;149.036;2023-03-14T01:47:20;26.70;50.00
39695;DHT22;25367;-35.352;149.036;2023-03-14T01:49:56;26.70;50.00
39695;DHT22;25367;-35.352;149.036;2023-03-14T01:52:30;26.70;49.90
39695;DHT22;25367;-35.352;149.036;2023-03-14T01:55:07;26.70;49.90
39695;DHT22;25367;-35.352;149.036;2023-03-14T01:57:41;26.80;49.90
39695;DHT22;25367;-35.352;149.036;2023-03-14T02:00:12;26.80;49.90
39695;DHT22;25367;-35.352;149.036;2023-03-14T02:02:48;26.80;49.80
39695;DHT22;25367;-35.352;149.036;2023-03-14T02:05:23;26.90;49.90
39695;DHT22;25367;-35.352;149.036;2023-03-14T02:08:07;26.80;49.90
39695;DHT22;25367;-35.352;149.036;2023-03-14T02:10:48;26.90;49.90
39695;DHT22;25367;-35.352;149.036;2023-03-14T02:13:20;26.90;49.90
39695;DHT22;25367;-35.352;149.036;2023-03-14T02:15:59;26.90;49.90
39695;DHT22;25367;-35.352;149.036;2023-03-14T02:18:44;26.90;49.90
39695;DHT22;25367;-35.352;149.036;2023-03-14T02:21:41;26.90;49.90
39695;DHT22;25367;-35.352;149.036;2023-03-14T02:24:15;26.90;49.90
39695;DHT22;25367;-35.352;149.036;2023-03-14T02:27:11;26.90;49.90
39695;DHT22;25367;-35.352;149.036;2023-03-14T02:29:51;26.90;49.60
39695;DHT22;25367;-35.352;149.036;2023-03-14T02:32:23;26.90;49.80
39695;DHT22;25367;-35.352;149.036;2023-03-14T02:34:56;27.00;49.80
39695;DHT22;25367;-35.352;149.036;2023-03-14T02:37:30;27.00;49.90
39695;DHT22;25367;-35.352;149.036;2023-03-14T02:40:01;27.00;49.80
39695;DHT22;25367;-35.352;149.036;2023-03-14T02:42:35;27.00;49.80
39695;DHT22;25367;-35.352;149.036;2023-03-14T02:45:36;27.00;49.80
39695;DHT22;25367;-35.352;149.036;2023-03-14T02:48:10;27.00;49.70
39695;DHT22;25367;-35.352;149.036;2023-03-14T02:50:42;27.00;49.90
39695;DHT22;25367;-35.352;149.036;2023-03-14T02:53:16;27.00;49.80
39695;DHT22;25367;-35.352;149.036;2023-03-14T02:55:47;27.10;49.80
39695;DHT22;25367;-35.352;149.036;2023-03-14T02:58:20;27.00;49.70
39695;DHT22;25367;-35.352;149.036;2023-03-14T03:00:55;27.00;49.50
39695;DHT22;25367;-35.352;149.036;2023-03-14T03:03:25;27.00;49.90
39695;DHT22;25367;-35.352;149.036;2023-03-14T03:05:56;27.10;49.80
39695;DHT22;25367;-35.352;149.036;2023-03-14T03:08:26;27.10;49.70
39695;DHT22;25367;-35.352;149.036;2023-03-14T03:10:57;27.10;49.70
39695;DHT22;25367;-35.352;149.036;2023-03-14T03:13:30;27.10;50.10
39695;DHT22;25367;-35.352;149.036;2023-03-14T03:16:02;27.20;49.80
39695;DHT22;25367;-35.352;149.036;2023-03-14T03:18:32;27.20;49.80
39695;DHT22;25367;-35.352;149.036;2023-03-14T03:21:02;27.20;49.80
39695;DHT22;25367;-35.352;149.036;2023-03-14T03:23:32;27.20;50.00
39695;DHT22;25367;-35.352;149.036;2023-03-14T03:26:02;27.20;49.90
39695;DHT22;25367;-35.352;149.036;2023-03-14T03:28:33;27.20;49.80
39695;DHT22;25367;-35.352;149.036;2023-03-14T03:31:08;27.20;49.80
39695;DHT22;25367;-35.352;149.036;2023-03-14T03:33:39;27.20;49.80
39695;DHT22;25367;-35.352;149.036;2023-03-14T03:36:10;27.20;49.80
39695;DHT22;25367;-35.352;149.036;2023-03-14T03:38:42;27.30;49.80
39695;DHT22;25367;-35.352;149.036;2023-03-14T03:41:12;27.20;49.70
39695;DHT22;25367;-35.352;149.036;2023-03-14T03:43:44;27.30;49.60
39695;DHT22;25367;-35.352;149.036;2023-03-14T03:46:17;27.30;49.70
39695;DHT22;25367;-35.352;149.036;2023-03-14T03:48:46;27.30;49.90
39695;DHT22;25367;-35.352;149.036;2023-03-14T03:51:16;27.30;49.90
39695;DHT22;25367;-35.352;149.036;2023-03-14T03:53:46;27.30;49.90
39695;DHT22;25367;-35.352;149.036;2023-03-14T03:56:20;27.30;50.00
39695;DHT22;25367;-35.352;149.036;2023-03-14T03:58:53;27.40;50.00
39695;DHT22;25367;-35.352;149.036;2023-03-14T04:01:22;27.40;50.00
39695;DHT22;25367;-35.352;149.036;2023-03-14T04:03:54;27.40;49.90
39695;DHT22;25367;-35.352;149.036;2023-03-14T04:06:24;27.40;49.90
39695;DHT22;25367;-35.352;149.036;2023-03-14T04:08:57;27.50;49.90
39695;DHT22;25367;-35.352;149.036;2023-03-14T04:11:47;27.40;49.80
39695;DHT22;25367;-35.352;149.036;2023-03-14T04:14:25;27.50;49.80
39695;DHT22;25367;-35.352;149.036;2023-03-14T04:17:09;27.50;49.80
39695;DHT22;25367;-35.352;149.036;2023-03-14T04:19:39;27.50;49.70
39695;DHT22;25367;-35.352;149.036;2023-03-14T04:22:09;27.50;49.70
39695;DHT22;25367;-35.352;149.036;2023-03-14T04:24:48;27.50;49.60
39695;DHT22;25367;-35.352;149.036;2023-03-14T04:27:18;27.50;49.60
39695;DHT22;25367;-35.352;149.036;2023-03-14T04:29:51;27.50;49.50
39695;DHT22;25367;-35.352;149.036;2023-03-14T04:32:29;27.50;49.50
39695;DHT22;25367;-35.352;149.036;2023-03-14T04:35:00;27.60;50.10
39695;DHT22;25367;-35.352;149.036;2023-03-14T04:37:31;27.50;49.50
39695;DHT22;25367;-35.352;149.036;2023-03-14T04:40:01;27.50;49.40
39695;DHT22;25367;-35.352;149.036;2023-03-14T04:42:35;27.50;49.30
39695;DHT22;25367;-35.352;149.036;2023-03-14T04:45:09;27.60;49.40
39695;DHT22;25367;-35.352;149.036;2023-03-14T04:47:41;27.50;49.30
39695;DHT22;25367;-35.352;149.036;2023-03-14T04:50:15;27.50;49.50
39695;DHT22;25367;-35.352;149.036;2023-03-14T04:52:45;27.60;49.50
39695;DHT22;25367;-35.352;149.036;2023-03-14T04:55:15;27.60;49.60
39695;DHT22;25367;-35.352;149.036;2023-03-14T04:57:46;27.50;49.50
39695;DHT22;25367;-35.352;149.036;2023-03-14T05:00:19;27.60;49.50
39695;DHT22;25367;-35.352;149.036;2023-03-14T05:02:56;27.50;49.40
39695;DHT22;25367;-35.352;149.036;2023-03-14T05:05:46;27.60;49.50
39695;DHT22;25367;-35.352;149.036;2023-03-14T05:08:42;27.50;49.60
39695;DHT22;25367;-35.352;149.036;2023-03-14T05:11:30;27.50;49.50
39695;DHT22;25367;-35.352;149.036;2023-03-14T05:14:26;27.60;49.40
39695;DHT22;25367;-35.352;149.036;2023-03-14T05:17:13;27.60;49.40
39695;DHT22;25367;-35.352;149.036;2023-03-14T05:20:09;27.60;49.40
39695;DHT22;25367;-35.352;149.036;2023-03-14T05:22:59;27.60;49.30
39695;DHT22;25367;-35.352;149.036;2023-03-14T05:25:47;27.60;49.30
39695;DHT22;25367;-35.352;149.036;2023-03-14T05:28:36;27.60;49.40
39695;DHT22;25367;-35.352;149.036;2023-03-14T05:31:18;27.60;49.30
39695;DHT22;25367;-35.352;149.036;2023-03-14T05:33:58;27.70;49.30
39695;DHT22;25367;-35.352;149.036;2023-03-14T05:36:38;27.70;49.30
39695;DHT22;25367;-35.352;149.036;2023-03-14T05:39:26;27.70;49.50
39695;DHT22;25367;-35.352;149.036;2023-03-14T05:42:09;27.70;49.20
39695;DHT22;25367;-35.352;149.036;2023-03-14T05:44:59;27.70;49.30
39695;DHT22;25367;-35.352;149.036;2023-03-14T05:48:08;27.70;49.30
39695;DHT22;25367;-35.352;149.036;2023-03-14T05:51:01;27.70;49.20
39695;DHT22;25367;-35.352;149.036;2023-03-14T05:53:45;27.70;49.30
39695;DHT22;25367;-35.352;149.036;2023-03-14T05:56:36;27.80;49.30
39695;DHT22;25367;-35.352;149.036;2023-03-14T05:59:27;27.80;49.30
39695;DHT22;25367;-35.352;149.036;2023-03-14T06:02:03;27.70;49.10
39695;DHT22;25367;-35.352;149.036;2023-03-14T06:04:41;27.80;49.10
39695;DHT22;25367;-35.352;149.036;2023-03-14T06:07:15;27.80;49.00
39695;DHT22;25367;-35.352;149.036;2023-03-14T06:09:46;27.80;49.10
39695;DHT22;25367;-35.352;149.036;2023-03-14T06:12:19;27.80;48.90
39695;DHT22;25367;-35.352;149.036;2023-03-14T06:14:50;27.80;48.90
39695;DHT22;25367;-35.352;149.036;2023-03-14T06:17:20;27.80;48.90
39695;DHT22;25367;-35.352;149.036;2023-03-14T06:20:02;27.80;49.00
39695;DHT22;25367;-35.352;149.036;2023-03-14T06:22:38;27.80;49.00
39695;DHT22;25367;-35.352;149.036;2023-03-14T06:25:08;27.80;49.30
39695;DHT22;25367;-35.352;149.036;2023-03-14T06:27:39;27.80;49.10
39695;DHT22;25367;-35.352;149.036;2023-03-14T06:30:10;27.90;48.90
39695;DHT22;25367;-35.352;149.036;2023-03-14T06:32:41;27.90;48.90
39695;DHT22;25367;-35.352;149.036;2023-03-14T06:35:15;27.90;48.70
39695;DHT22;25367;-35.352;149.036;2023-03-14T06:37:50;27.90;48.60
39695;DHT22;25367;-35.352;149.036;2023-03-14T06:40:21;27.90;48.60
39695;DHT22;25367;-35.352;149.036;2023-03-14T06:43:05;27.90;48.60
39695;DHT22;25367;-35.352;149.036;2023-03-14T06:45:36;27.90;48.60
39695;DHT22;25367;-35.352;149.036;2023-03-14T06:48:07;27.90;48.50
39695;DHT22;25367;-35.352;149.036;2023-03-14T06:50:43;27.90;48.50
39695;DHT22;25367;-35.352;149.036;2023-03-14T06:53:15;27.90;48.50
39695;DHT22;25367;-35.352;149.036;2023-03-14T06:55:46;27.90;48.50
39695;DHT22;25367;-35.352;149.036;2023-03-14T06:58:19;28.00;48.50
39695;DHT22;25367;-35.352;149.036;2023-03-14T07:00:49;28.00;48.40
39695;DHT22;25367;-35.352;149.036;2023-03-14T07:03:24;27.90;48.30
39695;DHT22;25367;-35.352;149.036;2023-03-14T07:05:57;28.00;48.30
39695;DHT22;25367;-35.352;149.036;2023-03-14T07:08:29;27.90;48.20
39695;DHT22;25367;-35.352;149.036;2023-03-14T07:10:59;28.00;48.30
39695;DHT22;25367;-35.352;149.036;2023-03-14T07:13:29;28.00;48.30
39695;DHT22;25367;-35.352;149.036;2023-03-14T07:16:05;28.00;48.30
39695;DHT22;25367;-35.352;149.036;2023-03-14T07:18:36;28.00;48.30
39695;DHT22;25367;-35.352;149.036;2023-03-14T07:21:08;28.00;48.30
39695;DHT22;25367;-35.352;149.036;2023-03-14T07:23:40;28.00;48.30
39695;DHT22;25367;-35.352;149.036;2023-03-14T07:26:11;28.00;48.30
39695;DHT22;25367;-35.352;149.036;2023-03-14T07:28:46;28.00;48.40
39695;DHT22;25367;-35.352;149.036;2023-03-14T07:31:20;27.90;48.30
39695;DHT22;25367;-35.352;149.036;2023-03-14T07:33:50;28.00;48.40
39695;DHT22;25367;-35.352;149.036;2023-03-14T07:36:22;28.00;48.40
39695;DHT22;25367;-35.352;149.036;2023-03-14T07:38:54;28.00;48.40
39695;DHT22;25367;-35.352;149.036;2023-03-14T07:41:48;28.00;48.40
39695;DHT22;25367;-35.352;149.036;2023-03-14T07:44:44;27.90;48.40
39695;DHT22;25367;-35.352;149.036;2023-03-14T07:47:14;28.00;48.40
39695;DHT22;25367;-35.352;149.036;2023-03-14T07:49:44;27.90;48.30
39695;DHT22;25367;-35.352;149.036;2023-03-14T07:52:14;28.00;48.30
39695;DHT22;25367;-35.352;149.036;2023-03-14T07:54:46;27.90;48.30
39695;DHT22;25367;-35.352;149.036;2023-03-14T07:57:16;27.90;48.40
39695;DHT22;25367;-35.352;149.036;2023-03-14T07:59:46;27.90;48.40
39695;DHT22;25367;-35.352;149.036;2023-03-14T08:02:16;27.90;49.10
39695;DHT22;25367;-35.352;149.036;2023-03-14T08:04:45;28.00;48.50
39695;DHT22;25367;-35.352;149.036;2023-03-14T08:07:15;27.90;48.40
39695;DHT22;25367;-35.352;149.036;2023-03-14T08:09:47;27.90;48.50
39695;DHT22;25367;-35.352;149.036;2023-03-14T08:12:17;28.00;48.60
39695;DHT22;25367;-35.352;149.036;2023-03-14T08:14:47;27.90;48.50
39695;DHT22;25367;-35.352;149.036;2023-03-14T08:17:17;28.00;48.60
39695;DHT22;25367;-35.352;149.036;2023-03-14T08:19:48;27.90;48.50
39695;DHT22;25367;-35.352;149.036;2023-03-14T08:22:18;27.90;48.50
39695;DHT22;25367;-35.352;149.036;2023-03-14T08:24:51;27.90;48.60
39695;DHT22;25367;-35.352;149.036;2023-03-14T08:27:21;27.90;48.50
39695;DHT22;25367;-35.352;149.036;2023-03-14T08:29:51;27.90;48.50
39695;DHT22;25367;-35.352;149.036;2023-03-14T08:32:21;27.90;48.40
39695;DHT22;25367;-35.352;149.036;2023-03-14T08:34:51;27.90;48.60
39695;DHT22;25367;-35.352;149.036;2023-03-14T08:37:20;27.90;48.60
39695;DHT22;25367;-35.352;149.036;2023-03-14T08:39:58;27.90;48.60
39695;DHT22;25367;-35.352;149.036;2023-03-14T08:42:27;27.90;48.60
39695;DHT22;25367;-35.352;149.036;2023-03-14T08:44:58;27.90;48.60
39695;DHT22;25367;-35.352;149.036;2023-03-14T08:47:28;27.90;48.50
39695;DHT22;25367;-35.352;149.036;2023-03-14T08:49:57;27.90;48.60
39695;DHT22;25367;-35.352;149.036;2023-03-14T08:52:27;27.90;48.50
39695;DHT22;25367;-35.352;149.036;2023-03-14T08:55:01;27.80;48.30
39695;DHT22;25367;-35.352;149.036;2023-03-14T08:57:31;27.80;48.30
39695;DHT22;25367;-35.352;149.036;2023-03-14T09:00:02;27.80;48.30
39695;DHT22;25367;-35.352;149.036;2023-03-14T09:02:32;27.80;48.30
39695;DHT22;25367;-35.352;149.036;2023-03-14T09:05:02;27.80;48.30
39695;DHT22;25367;-35.352;149.036;2023-03-14T09:07:32;27.80;48.30
39695;DHT22;25367;-35.352;149.036;2023-03-14T09:10:06;27.80;48.30
39695;DHT22;25367;-35.352;149.036;2023-03-14T09:12:36;27.80;48.30
39695;DHT22;25367;-35.352;149.036;2023-03-14T09:15:07;27.80;48.30
39695;DHT22;25367;-35.352;149.036;2023-03-14T09:17:37;27.70;48.30
39695;DHT22;25367;-35.352;149.036;2023-03-14T09:20:07;27.70;48.30
39695;DHT22;25367;-35.352;149.036;2023-03-14T09:22:37;27.70;48.40
39695;DHT22;25367;-35.352;149.036;2023-03-14T09:25:10;27.70;48.50
39695;DHT22;25367;-35.352;149.036;2023-03-14T09:27:41;27.70;48.60
39695;DHT22;25367;-35.352;149.036;2023-03-14T09:30:11;27.70;48.60
39695;DHT22;25367;-35.352;149.036;2023-03-14T09:32:41;27.70;48.60
39695;DHT22;25367;-35.352;149.036;2023-03-14T09:35:11;27.60;48.70
39695;DHT22;25367;-35.352;149.036;2023-03-14T09:37:41;27.70;48.80
39695;DHT22;25367;-35.352;149.036;2023-03-14T09:40:18;27.70;49.50
39695;DHT22;25367;-35.352;149.036;2023-03-14T09:42:49;27.70;48.80
39695;DHT22;25367;-35.352;149.036;2023-03-14T09:45:25;27.60;48.90
39695;DHT22;25367;-35.352;149.036;2023-03-14T09:47:57;27.60;48.90
39695;DHT22;25367;-35.352;149.036;2023-03-14T09:50:30;27.60;48.90
39695;DHT22;25367;-35.352;149.036;2023-03-14T09:53:04;27.60;48.90
39695;DHT22;25367;-35.352;149.036;2023-03-14T09:55:40;27.60;49.00
39695;DHT22;25367;-35.352;149.036;2023-03-14T09:58:13;27.60;49.10
39695;DHT22;25367;-35.352;149.036;2023-03-14T10:00:44;27.60;49.20
39695;DHT22;25367;-35.352;149.036;2023-03-14T10:03:32;27.50;49.10
39695;DHT22;25367;-35.352;149.036;2023-03-14T10:06:03;27.60;49.10
39695;DHT22;25367;-35.352;149.036;2023-03-14T10:08:41;27.50;49.20
39695;DHT22;25367;-35.352;149.036;2023-03-14T10:11:17;27.50;49.30
39695;DHT22;25367;-35.352;149.036;2023-03-14T10:14:02;27.50;49.20
39695;DHT22;25367;-35.352;149.036;2023-03-14T10:16:34;27.50;49.30
39695;DHT22;25367;-35.352;149.036;2023-03-14T10:19:06;27.50;49.40
39695;DHT22;25367;-35.352;149.036;2023-03-14T10:21:40;27.50;49.40
39695;DHT22;25367;-35.352;149.036;2023-03-14T10:24:21;27.50;49.40
39695;DHT22;25367;-35.352;149.036;2023-03-14T10:26:54;27.50;49.30
39695;DHT22;25367;-35.352;149.036;2023-03-14T10:29:24;27.50;49.50
39695;DHT22;25367;-35.352;149.036;2023-03-14T10:31:55;27.40;49.40
39695;DHT22;25367;-35.352;149.036;2023-03-14T10:34:27;27.40;49.40
39695;DHT22;25367;-35.352;149.036;2023-03-14T10:36:58;27.40;49.40
39695;DHT22;25367;-35.352;149.036;2023-03-14T10:39:36;27.40;49.50
39695;DHT22;25367;-35.352;149.036;2023-03-14T10:42:19;27.40;49.50
39695;DHT22;25367;-35.352;149.036;2023-03-14T10:44:54;27.40;49.40
39695;DHT22;25367;-35.352;149.036;2023-03-14T10:47:26;27.40;49.50
39695;DHT22;25367;-35.352;149.036;2023-03-14T10:49:57;27.40;49.50
39695;DHT22;25367;-35.352;149.036;2023-03-14T10:52:28;27.40;49.60
39695;DHT22;25367;-35.352;149.036;2023-03-14T10:55:00;27.30;49.50
39695;DHT22;25367;-35.352;149.036;2023-03-14T10:57:39;27.30;49.50
39695;DHT22;25367;-35.352;149.036;2023-03-14T11:00:16;27.40;49.50
39695;DHT22;25367;-35.352;149.036;2023-03-14T11:02:57;27.40;49.60
39695;DHT22;25367;-35.352;149.036;2023-03-14T11:05:34;27.30;49.50
39695;DHT22;25367;-35.352;149.036;2023-03-14T11:08:11;27.30;49.60
39695;DHT22;25367;-35.352;149.036;2023-03-14T11:10:46;27.30;49.60
39695;DHT22;25367;-35.352;149.036;2023-03-14T11:13:24;27.20;49.50
39695;DHT22;25367;-35.352;149.036;2023-03-14T11:16:05;27.30;49.60
39695;DHT22;25367;-35.352;149.036;2023-03-14T11:21:58;27.30;49.40
39695;DHT22;25367;-35.352;149.036;2023-03-14T11:24:38;27.20;49.60
39695;DHT22;25367;-35.352;149.036;2023-03-14T11:27:17;27.20;49.50
39695;DHT22;25367;-35.352;149.036;2023-03-14T11:29:54;27.20;49.50
39695;DHT22;25367;-35.352;149.036;2023-03-14T11:32:40;27.20;49.50
39695;DHT22;25367;-35.352;149.036;2023-03-14T11:35:19;27.20;49.50
39695;DHT22;25367;-35.352;149.036;2023-03-14T11:37:55;27.20;49.60
39695;DHT22;25367;-35.352;149.036;2023-03-14T11:40:29;27.20;49.70
39695;DHT22;25367;-35.352;149.036;2023-03-14T11:43:09;27.10;49.60
39695;DHT22;25367;-35.352;149.036;2023-03-14T11:45:43;27.20;49.60
39695;DHT22;25367;-35.352;149.036;2023-03-14T11:48:24;27.20;49.70
39695;DHT22;25367;-35.352;149.036;2023-03-14T11:50:59;27.20;49.60
39695;DHT22;25367;-35.352;149.036;2023-03-14T11:53:39;27.10;49.60
39695;DHT22;25367;-35.352;149.036;2023-03-14T11:56:16;27.20;49.70
39695;DHT22;25367;-35.352;149.036;2023-03-14T11:58:55;27.10;49.60
39695;DHT22;25367;-35.352;149.036;2023-03-14T12:01:35;27.10;49.60
39695;DHT22;25367;-35.352;149.036;2023-03-14T12:04:11;27.10;49.60
39695;DHT22;25367;-35.352;149.036;2023-03-14T12:06:48;27.10;49.60
39695;DHT22;25367;-35.352;149.036;2023-03-14T12:09:20;27.10;49.60
39695;DHT22;25367;-35.352;149.036;2023-03-14T12:11:51;27.00;49.60
39695;DHT22;25367;-35.352;149.036;2023-03-14T12:14:24;27.00;49.60
39695;DHT22;25367;-35.352;149.036;2023-03-14T12:17:05;27.00;49.50
39695;DHT22;25367;-35.352;149.036;2023-03-14T12:19:38;27.00;49.40
39695;DHT22;25367;-35.352;149.036;2023-03-14T12:22:28;27.00;49.60
39695;DHT22;25367;-35.352;149.036;2023-03-14T12:25:06;27.00;49.50
39695;DHT22;25367;-35.352;149.036;2023-03-14T12:27:46;27.00;49.70
39695;DHT22;25367;-35.352;149.036;2023-03-14T12:30:25;27.00;49.60
39695;DHT22;25367;-35.352;149.036;2023-03-14T12:33:30;27.00;49.50
39695;DHT22;25367;-35.352;149.036;2023-03-14T12:36:02;27.00;49.40
39695;DHT22;25367;-35.352;149.036;2023-03-14T12:41:20;26.90;49.40
39695;DHT22;25367;-35.352;149.036;2023-03-14T12:43:53;26.80;49.80
39695;DHT22;25367;-35.352;149.036;2023-03-14T12:46:25;26.80;49.70
39695;DHT22;25367;-35.352;149.036;2023-03-14T12:49:05;26.90;49.70
39695;DHT22;25367;-35.352;149.036;2023-03-14T12:51:39;26.90;49.60
39695;DHT22;25367;-35.352;149.036;2023-03-14T12:57:17;26.90;49.60
39695;DHT22;25367;-35.352;149.036;2023-03-14T12:59:52;26.90;50.20
39695;DHT22;25367;-35.352;149.036;2023-03-14T13:02:29;26.90;49.70
39695;DHT22;25367;-35.352;149.036;2023-03-14T13:05:11;26.80;49.60
39695;DHT22;25367;-35.352;149.036;2023-03-14T13:08:03;26.80;49.60
39695;DHT22;25367;-35.352;149.036;2023-03-14T13:10:42;26.80;49.50
39695;DHT22;25367;-35.352;149.036;2023-03-14T13:13:19;26.80;49.60
39695;DHT22;25367;-35.352;149.036;2023-03-14T13:15:54;26.80;49.70
39695;DHT22;25367;-35.352;149.036;2023-03-14T13:18:29;26.80;49.70
39695;DHT22;25367;-35.352;149.036;2023-03-14T13:21:06;26.80;49.60
39695;DHT22;25367;-35.352;149.036;2023-03-14T13:23:39;26.80;49.60
39695;DHT22;25367;-35.352;149.036;2023-03-14T13:26:13;26.80;49.70
39695;DHT22;25367;-35.352;149.036;2023-03-14T13:28:43;26.70;49.60
39695;DHT22;25367;-35.352;149.036;2023-03-14T13:31:21;26.80;49.60
39695;DHT22;25367;-35.352;149.036;2023-03-14T13:34:02;26.70;49.50
39695;DHT22;25367;-35.352;149.036;2023-03-14T13:36:37;26.70;49.50
39695;DHT22;25367;-35.352;149.036;2023-03-14T13:39:09;26.70;49.60
39695;DHT22;25367;-35.352;149.036;2023-03-14T13:41:40;26.70;49.40
39695;DHT22;25367;-35.352;149.036;2023-03-14T13:44:15;26.60;49.80
39695;DHT22;25367;-35.352;149.036;2023-03-14T13:46:47;26.70;49.70
39695;DHT22;25367;-35.352;149.036;2023-03-14T13:49:22;26.70;49.70
39695;DHT22;25367;-35.352;149.036;2023-03-14T13:51:57;26.70;49.60
39695;DHT22;25367;-35.352;149.036;2023-03-14T13:54:29;26.70;49.60
39695;DHT22;25367;-35.352;149.036;2023-03-14T13:57:04;26.70;49.60
39695;DHT22;25367;-35.352;149.036;2023-03-14T13:59:35;26.70;49.60
39695;DHT22;25367;-35.352;149.036;2023-03-14T14:02:12;26.60;49.60
39695;DHT22;25367;-35.352;149.036;2023-03-14T14:04:42;26.70;49.60
39695;DHT22;25367;-35.352;149.036;2023-03-14T14:07:17;26.60;49.60
39695;DHT22;25367;-35.352;149.036;2023-03-14T14:09:49;26.60;49.50
39695;DHT22;25367;-35.352;149.036;2023-03-14T14:12:22;26.60;49.60
39695;DHT22;25367;-35.352;149.036;2023-03-14T14:14:55;26.60;49.60
39695;DHT22;25367;-35.352;149.036;2023-03-14T14:17:25;26.60;49.60
39695;DHT22;25367;-35.352;149.036;2023-03-14T14:19:56;26.50;49.30
39695;DHT22;25367;-35.352;149.036;2023-03-14T14:22:31;26.50;49.80
39695;DHT22;25367;-35.352;149.036;2023-03-14T14:25:02;26.50;49.70
39695;DHT22;25367;-35.352;149.036;2023-03-14T14:27:36;26.50;49.70
39695;DHT22;25367;-35.352;149.036;2023-03-14T14:30:24;26.60;49.70
39695;DHT22;25367;-35.352;149.036;2023-03-14T14:33:06;26.50;49.60
39695;DHT22;25367;-35.352;149.036;2023-03-14T14:35:37;26.50;49.70
39695;DHT22;25367;-35.352;149.036;2023-03-14T14:38:17;26.50;49.70
39695;DHT22;25367;-35.352;149.036;2023-03-14T14:40:49;26.50;49.50
39695;DHT22;25367;-35.352;149.036;2023-03-14T14:43:22;26.50;49.70
39695;DHT22;25367;-35.352;149.036;2023-03-14T14:45:54;26.50;49.70
39695;DHT22;25367;-35.352;149.036;2023-03-14T14:48:25;26.50;49.70
39695;DHT22;25367;-35.352;149.036;2023-03-14T14:51:00;26.50;49.70
39695;DHT22;25367;-35.352;149.036;2023-03-14T14:53:38;26.50;49.70
39695;DHT22;25367;-35.352;149.036;2023-03-14T14:56:15;26.50;49.60
39695;DHT22;25367;-35.352;149.036;2023-03-14T14:58:46;26.40;49.70
39695;DHT22;25367;-35.352;149.036;2023-03-14T15:01:30;26.40;49.70
39695;DHT22;25367;-35.352;149.036;2023-03-14T15:04:01;26.50;49.70
39695;DHT22;25367;-35.352;149.036;2023-03-14T15:06:31;26.40;49.70
39695;DHT22;25367;-35.352;149.036;2023-03-14T15:09:08;26.40;49.70
39695;DHT22;25367;-35.352;149.036;2023-03-14T15:11:39;26.40;49.70
39695;DHT22;25367;-35.352;149.036;2023-03-14T15:14:08;26.40;49.70
39695;DHT22;25367;-35.352;149.036;2023-03-14T15:16:40;26.30;49.60
39695;DHT22;25367;-35.352;149.036;2023-03-14T15:19:15;26.40;49.70
39695;DHT22;25367;-35.352;149.036;2023-03-14T15:21:46;26.30;49.60
39695;DHT22;25367;-35.352;149.036;2023-03-14T15:24:18;26.30;49.70
39695;DHT22;25367;-35.352;149.036;2023-03-14T15:26:49;26.30;49.70
39695;DHT22;25367;-35.352;149.036;2023-03-14T15:29:19;26.30;49.70
39695;DHT22;25367;-35.352;149.036;2023-03-14T15:31:48;26.30;49.70
39695;DHT22;25367;-35.352;149.036;2023-03-14T15:34:18;26.30;49.70
39695;DHT22;25367;-35.352;149.036;2023-03-14T15:36:48;26.30;49.70
39695;DHT22;25367;-35.352;149.036;2023-03-14T15:39:20;26.30;49.70
39695;DHT22;25367;-35.352;149.036;2023-03-14T15:41:50;26.30;49.70
39695;DHT22;25367;-35.352;149.036;2023-03-14T15:44:20;26.30;49.70